Toledo, WA

10:53 PM PST on December 17, 2014 (GMT -0800)
Town | Change Station
CLOSE
Current Station
Personal Weather Station
Location: Toledo, WA
Elevation: 105 ft
Nearby Weather Stations

Elev 105 ft 46.44 °N, 122.85 °W | Updated 28 seconds ago

Overcast
Overcast
45.8 °F
Feels Like 46 °F
N
0.0
Wind Variable Wind from WSW
Gusts 6.0 mph

Today
High -- | Low -- °F
--% Chance of Precip.
Yesterday
High -- | Low -- °F
Precip. -- in
7:49 AM 4:25 PM
Waning Crescent, 16% visible
Pressure 29.93 in
Visibility 10.0 miles
Clouds Scattered Clouds 1400 ft
Mostly Cloudy 2700 ft
Overcast 3800 ft
Windchill 46 °F
Dew Point 41 °F
Humidity 82%
Rainfall 0.09 in
Snow Depth Not available.
UV 0 out of 12
Pollen .40 out of 12
Air Quality Not available.
Flu Activity Not available.
METAR KCLS 180635Z AUTO 18008KT 10SM -DZ SCT014 BKN027 OVC038 08/07 A2993 RMK AO2

More Conditions Fewer Conditions

Pressure 29.93 in
Visibility 10.0 miles
Clouds Scattered Clouds 1400 ft
Mostly Cloudy 2700 ft
Overcast 3800 ft
Windchill 46 °F
Dew Point 41 °F
Humidity 82%
Rainfall 0.09 in
Snow Depth Not available.
UV 0 out of 12
Pollen .40 out of 12
Air Quality Not available.
Flu Activity Not available.
METAR KCLS 180635Z AUTO 18008KT 10SM -DZ SCT014 BKN027 OVC038 08/07 A2993 RMK AO2

More Conditions Fewer Conditions

10-Day Weather Forecast

Almanac

Astronomy

Dec. 17, 2014 Rise Set
Actual Time
Civil Twilight
Nautical Twilight
Astronomical Twilight
Moon
Length of Visible Light
Length of Day
Tomorrow will be .
, % of the Moon is Illuminated

Today's Extremes

State Highs State Lows

Community

WunderPhotos

Upload Photos

1,778,897 photos uploaded!

WunderBlogs® & News

Nearby

Air Quality

  Air Quality AQ Index Pollutant
Not available.

Snow Depth

Station Depth Elevation

Earthquake Activity

City Distance Mag. Time & Date
Minimum magnitude displayed is 2.5.

Coastal Water Temperatures

Place Temperature

Nearby Weather Stations